Terminal Aerodrome Forecast
Issued by NWS

Home | Current Version | Previous Version | Graphics & Text | Print | Product List | Glossary On
Versions: 1 2 3 4 5 6 7 8 9 10 11 12 13 14 15 16 17 18 19 20 21 22 23
000
FTUS43 KBIS 181503 AAA
TAFDIK
TAF AMD
KDIK 181503Z 1815/1912 01014KT 1SM -SN OVC015
     FM181600 01014KT P6SM VCSH OVC015
     FM190100 01009KT P6SM OVC035
     FM190700 03007KT P6SM OVC015=

USA.gov is the U.S. government's official web portal to all federal, state and local government web resources and services.